sensor_id;sensor_type;location;lat;lon;timestamp;P1;durP1;ratioP1;P2;durP2;ratioP2
2772;SDS011;1394;47.044;15.744;2023-09-19T00:00:14;25.10;;;2.60;;
2772;SDS011;1394;47.044;15.744;2023-09-19T00:02:44;25.70;;;3.23;;
2772;SDS011;1394;47.044;15.744;2023-09-19T00:05:13;25.30;;;2.73;;
2772;SDS011;1394;47.044;15.744;2023-09-19T00:07:41;25.80;;;2.97;;
2772;SDS011;1394;47.044;15.744;2023-09-19T00:10:10;25.50;;;2.60;;
2772;SDS011;1394;47.044;15.744;2023-09-19T00:12:43;25.93;;;3.37;;
2772;SDS011;1394;47.044;15.744;2023-09-19T00:15:11;26.80;;;3.23;;
2772;SDS011;1394;47.044;15.744;2023-09-19T00:17:38;25.13;;;2.57;;
2772;SDS011;1394;47.044;15.744;2023-09-19T00:20:06;25.73;;;2.80;;
2772;SDS011;1394;47.044;15.744;2023-09-19T00:22:39;25.40;;;2.60;;
2772;SDS011;1394;47.044;15.744;2023-09-19T00:25:06;25.60;;;2.67;;
2772;SDS011;1394;47.044;15.744;2023-09-19T00:27:34;25.27;;;2.50;;
2772;SDS011;1394;47.044;15.744;2023-09-19T00:30:06;26.00;;;2.60;;
2772;SDS011;1394;47.044;15.744;2023-09-19T00:32:39;25.30;;;2.60;;
2772;SDS011;1394;47.044;15.744;2023-09-19T00:35:06;25.20;;;2.40;;
2772;SDS011;1394;47.044;15.744;2023-09-19T00:37:35;25.53;;;2.70;;
2772;SDS011;1394;47.044;15.744;2023-09-19T00:40:04;25.83;;;2.67;;
2772;SDS011;1394;47.044;15.744;2023-09-19T00:42:31;26.23;;;3.10;;
2772;SDS011;1394;47.044;15.744;2023-09-19T00:44:59;26.47;;;2.97;;
2772;SDS011;1394;47.044;15.744;2023-09-19T00:47:30;25.47;;;2.93;;
2772;SDS011;1394;47.044;15.744;2023-09-19T00:49:57;25.70;;;2.90;;
2772;SDS011;1394;47.044;15.744;2023-09-19T00:52:24;25.40;;;2.70;;
2772;SDS011;1394;47.044;15.744;2023-09-19T00:54:52;25.60;;;2.63;;
2772;SDS011;1394;47.044;15.744;2023-09-19T00:57:19;26.07;;;2.80;;
2772;SDS011;1394;47.044;15.744;2023-09-19T00:59:48;25.47;;;2.67;;
2772;SDS011;1394;47.044;15.744;2023-09-19T01:02:17;26.27;;;2.70;;
2772;SDS011;1394;47.044;15.744;2023-09-19T01:04:45;26.20;;;2.77;;
2772;SDS011;1394;47.044;15.744;2023-09-19T01:07:13;25.77;;;2.60;;
2772;SDS011;1394;47.044;15.744;2023-09-19T01:09:40;26.00;;;3.07;;
2772;SDS011;1394;47.044;15.744;2023-09-19T01:12:10;25.70;;;2.90;;
2772;SDS011;1394;47.044;15.744;2023-09-19T01:14:44;25.67;;;2.80;;
2772;SDS011;1394;47.044;15.744;2023-09-19T01:17:14;26.23;;;3.00;;
2772;SDS011;1394;47.044;15.744;2023-09-19T01:22:29;25.83;;;2.63;;
2772;SDS011;1394;47.044;15.744;2023-09-19T01:25:07;25.77;;;2.97;;
2772;SDS011;1394;47.044;15.744;2023-09-19T01:27:47;25.30;;;2.60;;
2772;SDS011;1394;47.044;15.744;2023-09-19T01:30:20;25.57;;;2.53;;
2772;SDS011;1394;47.044;15.744;2023-09-19T01:32:49;25.83;;;2.87;;
2772;SDS011;1394;47.044;15.744;2023-09-19T01:35:17;26.33;;;2.87;;
2772;SDS011;1394;47.044;15.744;2023-09-19T01:37:44;25.17;;;2.40;;
2772;SDS011;1394;47.044;15.744;2023-09-19T01:40:12;25.67;;;2.63;;
2772;SDS011;1394;47.044;15.744;2023-09-19T01:42:44;26.17;;;2.60;;
2772;SDS011;1394;47.044;15.744;2023-09-19T01:45:12;26.13;;;2.83;;
2772;SDS011;1394;47.044;15.744;2023-09-19T01:47:43;25.73;;;3.00;;
2772;SDS011;1394;47.044;15.744;2023-09-19T01:50:14;25.83;;;2.70;;
2772;SDS011;1394;47.044;15.744;2023-09-19T01:52:46;25.20;;;2.40;;
2772;SDS011;1394;47.044;15.744;2023-09-19T01:55:14;25.97;;;2.90;;
2772;SDS011;1394;47.044;15.744;2023-09-19T01:57:45;26.33;;;2.77;;
2772;SDS011;1394;47.044;15.744;2023-09-19T02:00:16;27.23;;;2.77;;
2772;SDS011;1394;47.044;15.744;2023-09-19T02:02:47;25.37;;;2.47;;
2772;SDS011;1394;47.044;15.744;2023-09-19T02:05:21;26.70;;;2.73;;
2772;SDS011;1394;47.044;15.744;2023-09-19T02:07:49;26.50;;;2.60;;
2772;SDS011;1394;47.044;15.744;2023-09-19T02:10:18;25.57;;;2.40;;
2772;SDS011;1394;47.044;15.744;2023-09-19T02:12:45;25.03;;;2.20;;
2772;SDS011;1394;47.044;15.744;2023-09-19T02:15:12;26.23;;;2.83;;
2772;SDS011;1394;47.044;15.744;2023-09-19T02:17:41;25.53;;;2.40;;
2772;SDS011;1394;47.044;15.744;2023-09-19T02:20:10;25.53;;;2.30;;
2772;SDS011;1394;47.044;15.744;2023-09-19T02:22:40;25.00;;;2.20;;
2772;SDS011;1394;47.044;15.744;2023-09-19T02:25:07;25.20;;;2.10;;
2772;SDS011;1394;47.044;15.744;2023-09-19T02:27:34;25.70;;;2.23;;
2772;SDS011;1394;47.044;15.744;2023-09-19T02:30:02;26.07;;;2.70;;
2772;SDS011;1394;47.044;15.744;2023-09-19T02:32:31;26.10;;;2.60;;
2772;SDS011;1394;47.044;15.744;2023-09-19T02:35:01;26.00;;;2.90;;
2772;SDS011;1394;47.044;15.744;2023-09-19T02:37:32;25.90;;;2.57;;
2772;SDS011;1394;47.044;15.744;2023-09-19T02:40:00;25.87;;;2.93;;
2772;SDS011;1394;47.044;15.744;2023-09-19T02:42:43;25.10;;;2.03;;
2772;SDS011;1394;47.044;15.744;2023-09-19T02:45:14;25.47;;;2.13;;
2772;SDS011;1394;47.044;15.744;2023-09-19T02:47:42;25.27;;;2.00;;
2772;SDS011;1394;47.044;15.744;2023-09-19T02:50:10;25.00;;;1.80;;
2772;SDS011;1394;47.044;15.744;2023-09-19T02:52:40;25.10;;;2.03;;
2772;SDS011;1394;47.044;15.744;2023-09-19T02:55:09;25.20;;;2.00;;
2772;SDS011;1394;47.044;15.744;2023-09-19T02:57:36;25.10;;;1.93;;
2772;SDS011;1394;47.044;15.744;2023-09-19T03:00:06;25.17;;;1.70;;
2772;SDS011;1394;47.044;15.744;2023-09-19T03:02:35;25.07;;;1.80;;
2772;SDS011;1394;47.044;15.744;2023-09-19T03:05:03;24.97;;;1.70;;
2772;SDS011;1394;47.044;15.744;2023-09-19T03:07:31;24.90;;;1.57;;
2772;SDS011;1394;47.044;15.744;2023-09-19T03:10:00;25.27;;;2.00;;
2772;SDS011;1394;47.044;15.744;2023-09-19T03:12:28;25.40;;;1.80;;
2772;SDS011;1394;47.044;15.744;2023-09-19T03:14:55;25.90;;;2.17;;
2772;SDS011;1394;47.044;15.744;2023-09-19T03:17:24;24.60;;;1.83;;
2772;SDS011;1394;47.044;15.744;2023-09-19T03:19:52;24.93;;;1.60;;
2772;SDS011;1394;47.044;15.744;2023-09-19T03:22:22;26.10;;;1.87;;
2772;SDS011;1394;47.044;15.744;2023-09-19T03:24:50;25.10;;;1.83;;
2772;SDS011;1394;47.044;15.744;2023-09-19T03:27:19;26.10;;;1.83;;
2772;SDS011;1394;47.044;15.744;2023-09-19T03:29:47;24.90;;;1.63;;
2772;SDS011;1394;47.044;15.744;2023-09-19T03:32:14;25.87;;;2.10;;
2772;SDS011;1394;47.044;15.744;2023-09-19T03:34:41;25.30;;;2.10;;
2772;SDS011;1394;47.044;15.744;2023-09-19T03:37:09;25.60;;;2.40;;
2772;SDS011;1394;47.044;15.744;2023-09-19T03:39:36;25.60;;;2.43;;
2772;SDS011;1394;47.044;15.744;2023-09-19T03:42:04;25.17;;;2.40;;
2772;SDS011;1394;47.044;15.744;2023-09-19T03:44:33;25.60;;;2.30;;
2772;SDS011;1394;47.044;15.744;2023-09-19T03:47:03;25.07;;;1.60;;
2772;SDS011;1394;47.044;15.744;2023-09-19T03:49:32;24.80;;;1.60;;
2772;SDS011;1394;47.044;15.744;2023-09-19T03:52:02;25.87;;;2.10;;
2772;SDS011;1394;47.044;15.744;2023-09-19T03:54:30;25.03;;;1.70;;
2772;SDS011;1394;47.044;15.744;2023-09-19T03:56:57;24.70;;;1.30;;
2772;SDS011;1394;47.044;15.744;2023-09-19T03:59:25;24.50;;;1.10;;
2772;SDS011;1394;47.044;15.744;2023-09-19T04:01:58;24.77;;;1.47;;
2772;SDS011;1394;47.044;15.744;2023-09-19T04:04:25;24.50;;;1.10;;
2772;SDS011;1394;47.044;15.744;2023-09-19T04:06:54;24.40;;;1.20;;
2772;SDS011;1394;47.044;15.744;2023-09-19T04:09:23;24.73;;;1.50;;
2772;SDS011;1394;47.044;15.744;2023-09-19T04:11:50;26.40;;;2.40;;
2772;SDS011;1394;47.044;15.744;2023-09-19T04:14:18;25.37;;;2.50;;
2772;SDS011;1394;47.044;15.744;2023-09-19T04:16:46;27.40;;;2.87;;
2772;SDS011;1394;47.044;15.744;2023-09-19T04:19:17;26.33;;;2.50;;
2772;SDS011;1394;47.044;15.744;2023-09-19T04:21:46;25.70;;;1.40;;
2772;SDS011;1394;47.044;15.744;2023-09-19T04:24:13;24.73;;;1.20;;
2772;SDS011;1394;47.044;15.744;2023-09-19T04:26:44;25.27;;;1.20;;
2772;SDS011;1394;47.044;15.744;2023-09-19T04:29:13;24.97;;;1.50;;
2772;SDS011;1394;47.044;15.744;2023-09-19T04:31:44;25.00;;;1.23;;
2772;SDS011;1394;47.044;15.744;2023-09-19T04:34:13;25.23;;;1.63;;
2772;SDS011;1394;47.044;15.744;2023-09-19T04:36:44;24.43;;;1.00;;
2772;SDS011;1394;47.044;15.744;2023-09-19T04:39:12;24.60;;;1.20;;
2772;SDS011;1394;47.044;15.744;2023-09-19T04:41:39;25.23;;;1.10;;
2772;SDS011;1394;47.044;15.744;2023-09-19T04:44:06;25.03;;;1.37;;
2772;SDS011;1394;47.044;15.744;2023-09-19T04:46:35;25.13;;;1.70;;
2772;SDS011;1394;47.044;15.744;2023-09-19T04:49:03;25.00;;;1.90;;
2772;SDS011;1394;47.044;15.744;2023-09-19T04:51:32;24.67;;;1.10;;
2772;SDS011;1394;47.044;15.744;2023-09-19T04:54:02;25.10;;;1.67;;
2772;SDS011;1394;47.044;15.744;2023-09-19T04:56:30;25.20;;;1.17;;
2772;SDS011;1394;47.044;15.744;2023-09-19T04:58:57;24.50;;;1.00;;
2772;SDS011;1394;47.044;15.744;2023-09-19T05:01:25;24.77;;;1.30;;
2772;SDS011;1394;47.044;15.744;2023-09-19T05:03:53;24.67;;;1.10;;
2772;SDS011;1394;47.044;15.744;2023-09-19T05:06:20;24.57;;;0.93;;
2772;SDS011;1394;47.044;15.744;2023-09-19T05:08:48;24.37;;;1.00;;
2772;SDS011;1394;47.044;15.744;2023-09-19T05:11:21;24.90;;;1.03;;
2772;SDS011;1394;47.044;15.744;2023-09-19T05:13:49;24.80;;;1.20;;
2772;SDS011;1394;47.044;15.744;2023-09-19T05:16:18;24.27;;;0.87;;
2772;SDS011;1394;47.044;15.744;2023-09-19T05:18:45;24.27;;;0.90;;
2772;SDS011;1394;47.044;15.744;2023-09-19T05:21:18;24.70;;;1.00;;
2772;SDS011;1394;47.044;15.744;2023-09-19T05:23:47;24.40;;;0.80;;
2772;SDS011;1394;47.044;15.744;2023-09-19T05:26:15;24.40;;;1.00;;
2772;SDS011;1394;47.044;15.744;2023-09-19T05:28:50;24.20;;;0.80;;
2772;SDS011;1394;47.044;15.744;2023-09-19T05:31:18;24.40;;;0.83;;
2772;SDS011;1394;47.044;15.744;2023-09-19T05:33:47;24.30;;;1.10;;
2772;SDS011;1394;47.044;15.744;2023-09-19T05:36:15;24.40;;;0.97;;
2772;SDS011;1394;47.044;15.744;2023-09-19T05:38:43;25.90;;;0.90;;
2772;SDS011;1394;47.044;15.744;2023-09-19T05:41:13;24.30;;;1.10;;
2772;SDS011;1394;47.044;15.744;2023-09-19T05:43:42;24.57;;;0.90;;
2772;SDS011;1394;47.044;15.744;2023-09-19T05:46:10;24.63;;;1.00;;
2772;SDS011;1394;47.044;15.744;2023-09-19T05:48:37;24.30;;;1.00;;
2772;SDS011;1394;47.044;15.744;2023-09-19T05:51:06;24.63;;;1.50;;
2772;SDS011;1394;47.044;15.744;2023-09-19T05:53:34;24.40;;;1.00;;
2772;SDS011;1394;47.044;15.744;2023-09-19T05:56:02;25.20;;;1.10;;
2772;SDS011;1394;47.044;15.744;2023-09-19T05:58:29;24.30;;;0.90;;
2772;SDS011;1394;47.044;15.744;2023-09-19T06:00:57;24.63;;;1.10;;
2772;SDS011;1394;47.044;15.744;2023-09-19T06:03:26;24.50;;;1.07;;
2772;SDS011;1394;47.044;15.744;2023-09-19T06:05:54;25.07;;;1.10;;
2772;SDS011;1394;47.044;15.744;2023-09-19T06:08:22;24.40;;;1.20;;
2772;SDS011;1394;47.044;15.744;2023-09-19T06:10:51;24.57;;;1.30;;
2772;SDS011;1394;47.044;15.744;2023-09-19T06:13:18;24.50;;;1.10;;
2772;SDS011;1394;47.044;15.744;2023-09-19T06:15:46;24.70;;;0.97;;
2772;SDS011;1394;47.044;15.744;2023-09-19T06:18:14;24.60;;;0.90;;
2772;SDS011;1394;47.044;15.744;2023-09-19T06:20:46;24.50;;;0.97;;
2772;SDS011;1394;47.044;15.744;2023-09-19T06:23:13;24.63;;;1.00;;
2772;SDS011;1394;47.044;15.744;2023-09-19T06:25:41;24.67;;;1.00;;
2772;SDS011;1394;47.044;15.744;2023-09-19T06:28:09;24.37;;;0.97;;
2772;SDS011;1394;47.044;15.744;2023-09-19T06:30:38;25.23;;;1.00;;
2772;SDS011;1394;47.044;15.744;2023-09-19T06:33:06;24.40;;;1.10;;
2772;SDS011;1394;47.044;15.744;2023-09-19T06:35:36;24.50;;;1.00;;
2772;SDS011;1394;47.044;15.744;2023-09-19T06:38:06;24.73;;;1.20;;
2772;SDS011;1394;47.044;15.744;2023-09-19T06:40:33;25.90;;;1.10;;
2772;SDS011;1394;47.044;15.744;2023-09-19T06:43:01;24.50;;;1.10;;
2772;SDS011;1394;47.044;15.744;2023-09-19T06:45:28;24.57;;;1.10;;
2772;SDS011;1394;47.044;15.744;2023-09-19T06:47:58;24.40;;;0.90;;
2772;SDS011;1394;47.044;15.744;2023-09-19T06:50:28;25.40;;;0.90;;
2772;SDS011;1394;47.044;15.744;2023-09-19T06:52:58;24.60;;;1.20;;
2772;SDS011;1394;47.044;15.744;2023-09-19T06:55:29;26.73;;;1.10;;
2772;SDS011;1394;47.044;15.744;2023-09-19T06:57:58;24.60;;;1.17;;
2772;SDS011;1394;47.044;15.744;2023-09-19T07:00:25;25.20;;;1.30;;
2772;SDS011;1394;47.044;15.744;2023-09-19T07:02:58;24.40;;;0.80;;
2772;SDS011;1394;47.044;15.744;2023-09-19T07:05:29;25.80;;;1.00;;
2772;SDS011;1394;47.044;15.744;2023-09-19T07:07:56;24.47;;;0.97;;
2772;SDS011;1394;47.044;15.744;2023-09-19T07:10:26;25.17;;;1.10;;
2772;SDS011;1394;47.044;15.744;2023-09-19T07:12:56;24.73;;;1.30;;
2772;SDS011;1394;47.044;15.744;2023-09-19T07:15:25;25.23;;;1.30;;
2772;SDS011;1394;47.044;15.744;2023-09-19T07:17:56;24.70;;;1.10;;
2772;SDS011;1394;47.044;15.744;2023-09-19T07:20:24;25.13;;;1.20;;
2772;SDS011;1394;47.044;15.744;2023-09-19T07:22:53;24.63;;;1.20;;
2772;SDS011;1394;47.044;15.744;2023-09-19T07:25:21;25.90;;;1.70;;
2772;SDS011;1394;47.044;15.744;2023-09-19T07:27:51;26.40;;;1.70;;
2772;SDS011;1394;47.044;15.744;2023-09-19T07:30:18;25.43;;;1.27;;
2772;SDS011;1394;47.044;15.744;2023-09-19T07:32:45;26.00;;;1.67;;
2772;SDS011;1394;47.044;15.744;2023-09-19T07:35:15;25.27;;;1.50;;
2772;SDS011;1394;47.044;15.744;2023-09-19T07:37:44;27.40;;;1.77;;
2772;SDS011;1394;47.044;15.744;2023-09-19T07:40:14;25.43;;;1.50;;
2772;SDS011;1394;47.044;15.744;2023-09-19T07:42:41;25.33;;;1.57;;
2772;SDS011;1394;47.044;15.744;2023-09-19T07:45:12;24.70;;;1.30;;
2772;SDS011;1394;47.044;15.744;2023-09-19T07:47:43;24.67;;;1.20;;
2772;SDS011;1394;47.044;15.744;2023-09-19T07:50:11;25.40;;;1.30;;
2772;SDS011;1394;47.044;15.744;2023-09-19T07:52:39;25.37;;;1.60;;
2772;SDS011;1394;47.044;15.744;2023-09-19T07:55:08;24.53;;;1.30;;
2772;SDS011;1394;47.044;15.744;2023-09-19T07:57:36;25.03;;;1.40;;
2772;SDS011;1394;47.044;15.744;2023-09-19T08:00:06;25.37;;;1.27;;
2772;SDS011;1394;47.044;15.744;2023-09-19T08:02:38;24.80;;;1.17;;
2772;SDS011;1394;47.044;15.744;2023-09-19T08:05:07;24.60;;;1.10;;
2772;SDS011;1394;47.044;15.744;2023-09-19T08:07:36;25.00;;;1.30;;
2772;SDS011;1394;47.044;15.744;2023-09-19T08:10:06;24.90;;;1.40;;
2772;SDS011;1394;47.044;15.744;2023-09-19T08:12:38;24.97;;;1.30;;
2772;SDS011;1394;47.044;15.744;2023-09-19T08:15:11;24.37;;;1.20;;
2772;SDS011;1394;47.044;15.744;2023-09-19T08:17:40;26.70;;;1.67;;
2772;SDS011;1394;47.044;15.744;2023-09-19T08:20:07;25.03;;;1.47;;
2772;SDS011;1394;47.044;15.744;2023-09-19T08:22:41;25.00;;;1.43;;
2772;SDS011;1394;47.044;15.744;2023-09-19T08:25:09;24.57;;;1.30;;
2772;SDS011;1394;47.044;15.744;2023-09-19T08:27:36;24.43;;;1.20;;
2772;SDS011;1394;47.044;15.744;2023-09-19T08:30:04;24.67;;;1.50;;
2772;SDS011;1394;47.044;15.744;2023-09-19T08:32:31;24.57;;;1.10;;
2772;SDS011;1394;47.044;15.744;2023-09-19T08:35:01;24.80;;;1.30;;
2772;SDS011;1394;47.044;15.744;2023-09-19T08:37:29;24.90;;;1.33;;
2772;SDS011;1394;47.044;15.744;2023-09-19T08:39:57;25.27;;;1.47;;
2772;SDS011;1394;47.044;15.744;2023-09-19T08:42:25;24.97;;;1.40;;
2772;SDS011;1394;47.044;15.744;2023-09-19T08:44:52;27.23;;;1.50;;
2772;SDS011;1394;47.044;15.744;2023-09-19T08:47:22;25.03;;;1.20;;
2772;SDS011;1394;47.044;15.744;2023-09-19T08:49:53;24.97;;;1.30;;
2772;SDS011;1394;47.044;15.744;2023-09-19T08:52:41;24.97;;;1.10;;
2772;SDS011;1394;47.044;15.744;2023-09-19T08:55:11;24.70;;;1.33;;
2772;SDS011;1394;47.044;15.744;2023-09-19T08:57:45;24.60;;;1.33;;
2772;SDS011;1394;47.044;15.744;2023-09-19T09:00:14;24.67;;;1.17;;
2772;SDS011;1394;47.044;15.744;2023-09-19T09:02:43;25.30;;;1.13;;
2772;SDS011;1394;47.044;15.744;2023-09-19T09:05:10;24.97;;;1.40;;
2772;SDS011;1394;47.044;15.744;2023-09-19T09:07:37;25.07;;;1.50;;
2772;SDS011;1394;47.044;15.744;2023-09-19T09:10:08;25.10;;;1.20;;
2772;SDS011;1394;47.044;15.744;2023-09-19T09:12:36;24.50;;;1.20;;
2772;SDS011;1394;47.044;15.744;2023-09-19T09:15:06;24.77;;;1.00;;
2772;SDS011;1394;47.044;15.744;2023-09-19T09:17:41;25.60;;;1.13;;
2772;SDS011;1394;47.044;15.744;2023-09-19T09:20:11;24.63;;;1.00;;
2772;SDS011;1394;47.044;15.744;2023-09-19T09:22:47;27.17;;;1.20;;
2772;SDS011;1394;47.044;15.744;2023-09-19T09:25:18;24.80;;;1.00;;
2772;SDS011;1394;47.044;15.744;2023-09-19T09:27:48;24.87;;;1.10;;
2772;SDS011;1394;47.044;15.744;2023-09-19T09:30:32;25.27;;;1.07;;
2772;SDS011;1394;47.044;15.744;2023-09-19T09:33:10;24.70;;;1.00;;
2772;SDS011;1394;47.044;15.744;2023-09-19T09:35:38;24.67;;;1.00;;
2772;SDS011;1394;47.044;15.744;2023-09-19T09:38:17;24.80;;;1.10;;
2772;SDS011;1394;47.044;15.744;2023-09-19T09:40:49;24.57;;;1.00;;
2772;SDS011;1394;47.044;15.744;2023-09-19T09:43:26;24.70;;;0.90;;
2772;SDS011;1394;47.044;15.744;2023-09-19T09:46:16;24.83;;;1.00;;
2772;SDS011;1394;47.044;15.744;2023-09-19T09:49:12;24.40;;;0.90;;
2772;SDS011;1394;47.044;15.744;2023-09-19T09:51:50;24.30;;;0.70;;
2772;SDS011;1394;47.044;15.744;2023-09-19T09:54:24;24.53;;;1.00;;
2772;SDS011;1394;47.044;15.744;2023-09-19T09:57:02;24.20;;;0.90;;
2772;SDS011;1394;47.044;15.744;2023-09-19T09:59:48;24.37;;;0.80;;
2772;SDS011;1394;47.044;15.744;2023-09-19T10:02:18;24.37;;;0.80;;
2772;SDS011;1394;47.044;15.744;2023-09-19T10:04:54;25.33;;;1.10;;
2772;SDS011;1394;47.044;15.744;2023-09-19T10:07:46;24.30;;;0.70;;
2772;SDS011;1394;47.044;15.744;2023-09-19T10:10:15;24.30;;;0.83;;
2772;SDS011;1394;47.044;15.744;2023-09-19T10:13:06;24.30;;;0.90;;
2772;SDS011;1394;47.044;15.744;2023-09-19T10:15:37;24.63;;;0.90;;
2772;SDS011;1394;47.044;15.744;2023-09-19T10:18:07;24.50;;;0.90;;
2772;SDS011;1394;47.044;15.744;2023-09-19T10:20:42;25.70;;;0.90;;
2772;SDS011;1394;47.044;15.744;2023-09-19T10:23:11;24.57;;;0.90;;
2772;SDS011;1394;47.044;15.744;2023-09-19T10:25:39;24.87;;;0.90;;
2772;SDS011;1394;47.044;15.744;2023-09-19T10:28:09;24.47;;;0.70;;
2772;SDS011;1394;47.044;15.744;2023-09-19T10:30:41;24.50;;;0.90;;
2772;SDS011;1394;47.044;15.744;2023-09-19T10:33:10;24.67;;;1.03;;
2772;SDS011;1394;47.044;15.744;2023-09-19T10:35:38;24.57;;;0.97;;
2772;SDS011;1394;47.044;15.744;2023-09-19T10:38:06;24.40;;;0.90;;
2772;SDS011;1394;47.044;15.744;2023-09-19T10:40:35;24.73;;;0.97;;
2772;SDS011;1394;47.044;15.744;2023-09-19T10:43:06;24.40;;;0.93;;
2772;SDS011;1394;47.044;15.744;2023-09-19T10:45:35;24.30;;;1.00;;
2772;SDS011;1394;47.044;15.744;2023-09-19T10:48:05;24.20;;;0.90;;
2772;SDS011;1394;47.044;15.744;2023-09-19T10:50:33;24.43;;;0.70;;
2772;SDS011;1394;47.044;15.744;2023-09-19T10:53:02;24.53;;;1.00;;
2772;SDS011;1394;47.044;15.744;2023-09-19T10:55:34;24.20;;;0.83;;
2772;SDS011;1394;47.044;15.744;2023-09-19T10:58:02;24.40;;;0.80;;
2772;SDS011;1394;47.044;15.744;2023-09-19T11:00:52;25.13;;;1.07;;
2772;SDS011;1394;47.044;15.744;2023-09-19T11:03:22;24.63;;;0.83;;
2772;SDS011;1394;47.044;15.744;2023-09-19T11:06:02;24.20;;;0.80;;
2772;SDS011;1394;47.044;15.744;2023-09-19T11:08:30;24.77;;;1.00;;
2772;SDS011;1394;47.044;15.744;2023-09-19T11:10:58;24.50;;;0.80;;
2772;SDS011;1394;47.044;15.744;2023-09-19T11:13:28;24.30;;;0.73;;
2772;SDS011;1394;47.044;15.744;2023-09-19T11:16:03;24.30;;;0.90;;
2772;SDS011;1394;47.044;15.744;2023-09-19T11:26:43;26.10;;;0.90;;
2772;SDS011;1394;47.044;15.744;2023-09-19T11:29:25;24.60;;;0.90;;
2772;SDS011;1394;47.044;15.744;2023-09-19T11:31:55;24.30;;;1.00;;
2772;SDS011;1394;47.044;15.744;2023-09-19T11:40:05;24.30;;;0.80;;
2772;SDS011;1394;47.044;15.744;2023-09-19T11:42:41;24.40;;;0.70;;
2772;SDS011;1394;47.044;15.744;2023-09-19T11:48:06;24.17;;;0.70;;
2772;SDS011;1394;47.044;15.744;2023-09-19T11:50:33;24.23;;;0.80;;
2772;SDS011;1394;47.044;15.744;2023-09-19T11:53:03;24.20;;;0.83;;
2772;SDS011;1394;47.044;15.744;2023-09-19T11:55:31;24.17;;;0.73;;
2772;SDS011;1394;47.044;15.744;2023-09-19T11:58:00;24.30;;;0.77;;
2772;SDS011;1394;47.044;15.744;2023-09-19T12:00:29;26.87;;;0.87;;
2772;SDS011;1394;47.044;15.744;2023-09-19T12:03:00;23.90;;;0.80;;
2772;SDS011;1394;47.044;15.744;2023-09-19T12:05:34;24.10;;;0.97;;
2772;SDS011;1394;47.044;15.744;2023-09-19T12:08:02;23.97;;;0.80;;
2772;SDS011;1394;47.044;15.744;2023-09-19T12:10:32;24.23;;;0.90;;
2772;SDS011;1394;47.044;15.744;2023-09-19T12:12:59;24.40;;;1.00;;
2772;SDS011;1394;47.044;15.744;2023-09-19T12:15:27;24.87;;;0.80;;
2772;SDS011;1394;47.044;15.744;2023-09-19T12:18:00;24.57;;;0.70;;
2772;SDS011;1394;47.044;15.744;2023-09-19T12:20:43;24.10;;;0.80;;
2772;SDS011;1394;47.044;15.744;2023-09-19T12:23:13;24.57;;;0.80;;
2772;SDS011;1394;47.044;15.744;2023-09-19T12:25:42;23.90;;;0.73;;
2772;SDS011;1394;47.044;15.744;2023-09-19T12:28:13;23.90;;;0.77;;
2772;SDS011;1394;47.044;15.744;2023-09-19T12:30:43;24.10;;;1.10;;
2772;SDS011;1394;47.044;15.744;2023-09-19T12:33:14;23.87;;;0.70;;
2772;SDS011;1394;47.044;15.744;2023-09-19T12:35:45;24.27;;;0.70;;
2772;SDS011;1394;47.044;15.744;2023-09-19T12:38:22;23.90;;;0.70;;
2772;SDS011;1394;47.044;15.744;2023-09-19T12:40:52;24.47;;;0.80;;
2772;SDS011;1394;47.044;15.744;2023-09-19T12:43:21;23.90;;;0.90;;
2772;SDS011;1394;47.044;15.744;2023-09-19T12:45:49;23.93;;;0.80;;
2772;SDS011;1394;47.044;15.744;2023-09-19T12:48:23;24.37;;;0.77;;
2772;SDS011;1394;47.044;15.744;2023-09-19T12:53:45;24.80;;;1.07;;
2772;SDS011;1394;47.044;15.744;2023-09-19T12:56:14;23.83;;;0.70;;
2772;SDS011;1394;47.044;15.744;2023-09-19T12:58:49;24.20;;;0.87;;
2772;SDS011;1394;47.044;15.744;2023-09-19T13:01:18;24.70;;;1.10;;
2772;SDS011;1394;47.044;15.744;2023-09-19T13:03:45;24.10;;;0.80;;
2772;SDS011;1394;47.044;15.744;2023-09-19T13:06:14;24.37;;;0.80;;
2772;SDS011;1394;47.044;15.744;2023-09-19T13:08:44;23.90;;;0.73;;
2772;SDS011;1394;47.044;15.744;2023-09-19T13:11:19;23.80;;;0.70;;
2772;SDS011;1394;47.044;15.744;2023-09-19T13:13:47;23.80;;;0.70;;
2772;SDS011;1394;47.044;15.744;2023-09-19T13:16:19;23.70;;;0.80;;
2772;SDS011;1394;47.044;15.744;2023-09-19T13:18:49;24.20;;;0.70;;
2772;SDS011;1394;47.044;15.744;2023-09-19T13:21:26;23.60;;;0.70;;
2772;SDS011;1394;47.044;15.744;2023-09-19T13:23:55;24.47;;;0.90;;
2772;SDS011;1394;47.044;15.744;2023-09-19T13:26:24;23.83;;;0.77;;
2772;SDS011;1394;47.044;15.744;2023-09-19T13:28:54;24.03;;;0.80;;
2772;SDS011;1394;47.044;15.744;2023-09-19T13:31:21;23.80;;;0.90;;
2772;SDS011;1394;47.044;15.744;2023-09-19T13:33:52;23.77;;;0.70;;
2772;SDS011;1394;47.044;15.744;2023-09-19T13:36:20;23.60;;;0.80;;
2772;SDS011;1394;47.044;15.744;2023-09-19T13:38:50;23.50;;;0.80;;
2772;SDS011;1394;47.044;15.744;2023-09-19T13:41:20;23.90;;;0.83;;
2772;SDS011;1394;47.044;15.744;2023-09-19T13:43:47;23.90;;;0.73;;
2772;SDS011;1394;47.044;15.744;2023-09-19T13:46:14;23.97;;;0.80;;
2772;SDS011;1394;47.044;15.744;2023-09-19T13:48:44;24.13;;;0.80;;
2772;SDS011;1394;47.044;15.744;2023-09-19T13:51:11;24.20;;;0.70;;
2772;SDS011;1394;47.044;15.744;2023-09-19T13:53:40;24.10;;;0.70;;
2772;SDS011;1394;47.044;15.744;2023-09-19T13:56:07;24.47;;;0.80;;
2772;SDS011;1394;47.044;15.744;2023-09-19T13:58:37;25.07;;;1.03;;
2772;SDS011;1394;47.044;15.744;2023-09-19T14:01:04;24.30;;;0.80;;
2772;SDS011;1394;47.044;15.744;2023-09-19T14:03:37;24.20;;;0.73;;
2772;SDS011;1394;47.044;15.744;2023-09-19T14:06:04;24.40;;;0.73;;
2772;SDS011;1394;47.044;15.744;2023-09-19T14:08:32;24.60;;;0.90;;
2772;SDS011;1394;47.044;15.744;2023-09-19T14:11:05;24.30;;;0.80;;
2772;SDS011;1394;47.044;15.744;2023-09-19T14:13:32;24.50;;;1.00;;
2772;SDS011;1394;47.044;15.744;2023-09-19T14:16:05;24.13;;;0.77;;
2772;SDS011;1394;47.044;15.744;2023-09-19T14:18:35;24.03;;;0.70;;
2772;SDS011;1394;47.044;15.744;2023-09-19T14:21:05;24.60;;;0.73;;
2772;SDS011;1394;47.044;15.744;2023-09-19T14:23:36;23.70;;;0.77;;
2772;SDS011;1394;47.044;15.744;2023-09-19T14:26:04;23.80;;;0.70;;
2772;SDS011;1394;47.044;15.744;2023-09-19T14:28:31;23.93;;;0.83;;
2772;SDS011;1394;47.044;15.744;2023-09-19T14:31:06;23.70;;;0.70;;
2772;SDS011;1394;47.044;15.744;2023-09-19T14:33:35;23.80;;;0.80;;
2772;SDS011;1394;47.044;15.744;2023-09-19T14:36:03;23.67;;;0.70;;
2772;SDS011;1394;47.044;15.744;2023-09-19T14:38:32;23.67;;;0.70;;
2772;SDS011;1394;47.044;15.744;2023-09-19T14:41:00;23.60;;;0.60;;
2772;SDS011;1394;47.044;15.744;2023-09-19T14:43:27;23.50;;;0.73;;
2772;SDS011;1394;47.044;15.744;2023-09-19T14:45:55;24.43;;;0.67;;
2772;SDS011;1394;47.044;15.744;2023-09-19T14:48:27;23.63;;;0.80;;
2772;SDS011;1394;47.044;15.744;2023-09-19T14:50:54;23.77;;;0.90;;
2772;SDS011;1394;47.044;15.744;2023-09-19T14:53:23;23.87;;;0.70;;
2772;SDS011;1394;47.044;15.744;2023-09-19T14:55:52;23.50;;;0.63;;
2772;SDS011;1394;47.044;15.744;2023-09-19T14:58:21;23.50;;;0.60;;
2772;SDS011;1394;47.044;15.744;2023-09-19T15:00:51;23.97;;;0.80;;
2772;SDS011;1394;47.044;15.744;2023-09-19T15:03:18;23.70;;;0.70;;
2772;SDS011;1394;47.044;15.744;2023-09-19T15:05:47;23.83;;;0.70;;
2772;SDS011;1394;47.044;15.744;2023-09-19T15:08:14;23.97;;;0.70;;
2772;SDS011;1394;47.044;15.744;2023-09-19T15:10:48;23.63;;;0.70;;
2772;SDS011;1394;47.044;15.744;2023-09-19T15:13:16;23.60;;;0.70;;
2772;SDS011;1394;47.044;15.744;2023-09-19T15:15:43;24.43;;;0.73;;
2772;SDS011;1394;47.044;15.744;2023-09-19T15:18:13;23.50;;;0.70;;
2772;SDS011;1394;47.044;15.744;2023-09-19T15:20:43;23.63;;;0.70;;
2772;SDS011;1394;47.044;15.744;2023-09-19T15:23:16;23.77;;;0.80;;
2772;SDS011;1394;47.044;15.744;2023-09-19T15:25:47;23.83;;;0.70;;